Time;durP1;ratioP1;P1;durP2;ratioP2;P2;SDS_P1;SDS_P2;PMS_P1;PMS_P2;Temp;Humidity;BMP_temperature;BMP_pressure;BME280_temperature;BME280_humidity;BME280_pressure;Samples;Min_cycle;Max_cycle;Signal;HPM_P1;HPM_P2
2023/01/18 00:01:13;;;;;;;5.07;3.47;;;3.40;99.90;;;3.09;78.10;97838.50;5013372;28;20237;-66
2023/01/18 00:03:41;;;;;;;3.83;3.30;;;3.30;99.90;;;3.11;78.14;97828.88;4994894;28;20213;-67
2023/01/18 00:06:09;;;;;;;5.53;3.60;;;3.30;99.90;;;3.14;77.79;97831.22;5012670;28;20733;-66
2023/01/18 00:08:38;;;;;;;3.40;3.10;;;3.40;99.90;;;3.17;78.53;97835.28;5011380;28;20222;-66
2023/01/18 00:11:09;;;;;;;3.03;2.83;;;3.40;99.90;;;3.19;78.39;97830.81;5012203;28;20203;-66
2023/01/18 00:13:37;;;;;;;3.45;3.03;;;3.40;99.90;;;3.19;77.91;97835.97;5026706;28;20584;-67
2023/01/18 00:16:17;;;;;;;3.13;2.83;;;3.50;99.90;;;3.17;78.17;97829.31;5025690;28;20276;-67
2023/01/18 00:18:51;;;;;;;5.10;4.07;;;3.40;99.90;;;3.13;77.70;97827.00;5016609;28;20206;-66
2023/01/18 00:21:18;;;;;;;4.15;3.53;;;3.40;99.90;;;3.13;77.84;97828.78;5009850;28;20793;-66
2023/01/18 00:23:45;;;;;;;3.08;2.88;;;3.40;99.90;;;3.08;78.27;97823.19;5010096;28;20210;-65
2023/01/18 00:26:12;;;;;;;3.67;3.35;;;3.30;99.90;;;3.05;78.50;97818.28;5019814;28;20225;-64
2023/01/18 00:28:40;;;;;;;4.07;3.58;;;3.30;99.90;;;3.03;78.38;97815.03;5026724;28;20224;-67
2023/01/18 00:31:17;;;;;;;4.00;3.60;;;3.30;99.90;;;3.03;78.27;97815.84;4997501;28;20667;-65
2023/01/18 00:33:46;;;;;;;4.55;2.92;;;3.30;99.90;;;3.06;78.88;97820.75;4994083;28;20198;-65
2023/01/18 00:36:14;;;;;;;3.65;3.20;;;3.30;99.90;;;3.06;78.88;97820.75;4994413;28;20225;-67
2023/01/18 00:38:41;;;;;;;3.58;3.28;;;3.30;99.90;;;3.06;78.17;97823.34;5024455;28;20210;-66
2023/01/18 00:41:08;;;;;;;5.22;2.80;;;3.30;99.90;;;3.03;78.97;97826.16;5012809;28;20286;-66
2023/01/18 00:43:38;;;;;;;2.92;2.60;;;3.30;99.90;;;3.03;79.08;97826.16;5009389;28;20436;-65
2023/01/18 00:46:11;;;;;;;3.28;2.92;;;3.30;99.90;;;3.02;79.03;97831.44;5011137;28;20227;-66
2023/01/18 00:48:39;;;;;;;4.43;2.20;;;3.20;99.90;;;3.00;78.28;97823.84;5018940;28;20260;-66
2023/01/18 00:51:09;;;;;;;3.08;2.78;;;3.20;99.90;;;2.99;78.22;97826.53;4994467;28;20252;-66
2023/01/18 00:53:37;;;;;;;3.92;2.85;;;3.20;99.90;;;2.98;78.77;97828.31;5010203;28;20257;-66
2023/01/18 00:56:09;;;;;;;2.83;2.63;;;3.20;99.90;;;3.01;78.43;97830.63;5011749;28;20218;-66
2023/01/18 00:58:36;;;;;;;3.15;2.72;;;3.20;99.90;;;3.01;78.35;97830.63;5011950;28;20669;-66
2023/01/18 01:01:05;;;;;;;4.18;2.85;;;3.30;99.90;;;3.03;78.31;97841.63;5011050;28;20290;-66
2023/01/18 01:06:42;;;;;;;3.28;2.75;;;3.30;99.90;;;3.03;77.98;97839.03;5010755;28;20208;-66
2023/01/18 01:06:44;;;;;;;9.13;2.65;;;3.30;99.90;;;3.02;78.01;97832.25;5011520;28;20245;-66
2023/01/18 01:09:25;;;;;;;4.03;2.83;;;3.30;99.90;;;3.04;77.82;97842.44;5010770;28;20276;-66
2023/01/18 01:26:06;;;;;;;4.00;3.58;;;3.10;99.90;;;2.84;78.30;97854.41;5010454;28;20272;-66
2023/01/18 01:28:41;;;;;;;5.18;3.60;;;3.10;99.90;;;2.78;78.26;97854.94;5009749;28;20233;-66
2023/01/18 01:31:12;;;;;;;4.40;3.72;;;3.10;99.90;;;2.74;78.40;97861.28;5007207;28;20197;-66
2023/01/18 01:33:40;;;;;;;3.13;2.83;;;3.00;99.90;;;2.75;78.10;97865.47;5006899;28;20207;-65
2023/01/18 01:36:10;;;;;;;8.57;3.25;;;3.00;99.90;;;2.74;78.44;97871.59;5017850;28;20224;-66
2023/01/18 01:38:37;;;;;;;3.28;3.00;;;3.00;99.90;;;2.72;78.79;97870.91;4990977;28;20205;-66
2023/01/18 01:41:20;;;;;;;2.88;2.67;;;3.00;99.90;;;2.72;78.56;97873.47;5011304;28;20198;-66
2023/01/18 01:43:50;;;;;;;3.90;3.55;;;3.00;99.90;;;2.68;77.68;97882.41;5008895;28;20210;-66
2023/01/18 01:46:33;;;;;;;5.47;2.88;;;2.90;99.90;;;2.65;78.84;97882.66;5010375;28;20226;-65
2023/01/18 01:49:16;;;;;;;3.83;3.25;;;2.90;99.90;;;2.68;78.19;97886.72;5009579;28;20250;-66
2023/01/18 01:51:55;;;;;;;2.50;2.30;;;2.90;99.90;;;2.72;77.90;97894.06;5010581;28;20695;-66
2023/01/18 01:54:27;;;;;;;3.42;3.20;;;3.00;99.90;;;2.68;77.44;97895.28;5009764;28;20198;-66
2023/01/18 01:57:09;;;;;;;3.55;3.25;;;2.90;99.90;;;2.64;77.71;97901.59;5011590;28;20238;-66
2023/01/18 01:59:47;;;;;;;3.90;3.30;;;2.90;99.90;;;2.63;78.47;97905.13;4990071;28;20199;-66
2023/01/18 02:02:14;;;;;;;2.72;2.47;;;2.90;99.90;;;2.67;77.74;97910.81;5019548;28;20212;-66
2023/01/18 02:04:45;;;;;;;2.85;2.72;;;2.90;99.90;;;2.64;77.43;97900.81;5014502;28;20207;-66
2023/01/18 02:07:12;;;;;;;3.40;2.70;;;2.90;99.90;;;2.63;77.90;97914.59;5011199;28;20199;-66
2023/01/18 02:09:40;;;;;;;2.85;2.65;;;2.90;99.90;;;2.62;78.33;97913.78;4992247;28;20222;-66
2023/01/18 02:12:07;;;;;;;3.80;3.50;;;2.80;99.90;;;2.62;77.71;97924.06;5010306;28;20195;-67
2023/01/18 02:14:34;;;;;;;4.05;3.25;;;2.90;99.90;;;2.64;77.94;97935.06;5010748;28;20202;-66
2023/01/18 02:17:16;;;;;;;2.05;1.95;;;2.90;99.90;;;2.65;77.35;97928.16;5012799;28;20238;-66
2023/01/18 02:20:33;;;;;;;3.58;3.28;;;2.90;99.90;;;2.60;76.87;97936.25;5014761;28;20337;-66
2023/01/18 02:23:48;;;;;;;3.25;2.55;;;2.90;99.90;;;2.64;76.97;97936.84;5013720;28;20202;-65
2023/01/18 02:26:49;;;;;;;3.40;3.20;;;2.90;99.90;;;2.62;77.18;97941.28;4997252;28;20316;-66
2023/01/18 02:29:40;;;;;;;2.40;2.20;;;2.90;99.90;;;2.58;77.53;97938.13;4976957;28;20231;-66
2023/01/18 02:32:22;;;;;;;2.28;2.17;;;2.80;99.90;;;2.62;77.79;97941.28;4999602;28;20202;-66
2023/01/18 02:35:01;;;;;;;3.25;2.90;;;2.80;99.90;;;2.62;77.50;97939.50;4996406;28;20750;-66
2023/01/18 02:38:15;;;;;;;2.75;2.55;;;2.80;99.90;;;2.67;77.80;97950.25;5012304;28;20655;-65
2023/01/18 02:40:45;;;;;;;2.25;2.05;;;2.90;99.90;;;2.70;78.26;97937.16;5013430;28;20210;-65
2023/01/18 02:48:49;;;;;;;1.88;1.77;;;3.00;99.90;;;2.76;77.53;97954.66;5010506;28;20315;-66
2023/01/18 02:51:16;;;;;;;2.20;2.10;;;3.00;99.90;;;2.77;77.07;97953.69;5010955;28;20662;-66
2023/01/18 02:53:46;;;;;;;2.80;2.60;;;3.00;99.90;;;2.81;76.93;97947.34;5011246;28;20222;-65
2023/01/18 02:56:21;;;;;;;3.08;2.70;;;3.10;99.90;;;2.84;76.68;97954.84;4991311;28;20215;-66
2023/01/18 02:59:20;;;;;;;2.38;2.15;;;3.10;99.90;;;2.86;76.31;97959.84;4994738;28;20203;-67
2023/01/18 03:01:58;;;;;;;2.30;2.20;;;3.10;99.90;;;2.88;76.85;97960.53;5006983;28;20206;-66
2023/01/18 03:04:36;;;;;;;3.85;2.80;;;3.10;99.90;;;2.86;76.14;97963.25;4995755;28;20198;-66
2023/01/18 03:07:28;;;;;;;4.18;2.83;;;3.10;99.90;;;2.89;76.65;97962.19;4994107;28;20578;-66
2023/01/18 03:09:57;;;;;;;3.65;2.88;;;3.10;99.90;;;2.86;76.15;97965.81;5002041;28;20245;-66
2023/01/18 03:12:59;;;;;;;2.75;2.30;;;3.10;99.90;;;2.86;76.47;97960.66;4993981;28;20199;-66
2023/01/18 03:16:17;;;;;;;4.30;2.83;;;3.10;99.90;;;2.87;76.68;97969.22;5015578;28;20226;-69
2023/01/18 03:19:01;;;;;;;2.35;2.25;;;3.10;99.90;;;2.84;75.74;97967.72;4989627;28;20203;-67
2023/01/18 03:21:47;;;;;;;2.42;2.33;;;3.10;99.90;;;2.86;76.01;97977.88;5008777;28;20555;-66
2023/01/18 03:24:17;;;;;;;2.53;2.15;;;3.10;99.90;;;2.87;75.70;97980.34;5012027;28;20197;-67
2023/01/18 03:26:52;;;;;;;4.75;2.58;;;3.10;99.90;;;2.85;75.59;97981.41;4978080;28;20619;-71
2023/01/18 03:35:06;;;;;;;2.70;2.50;;;3.10;99.90;;;2.80;76.43;97984.34;4996426;28;20245;-67
2023/01/18 03:37:38;;;;;;;3.28;2.70;;;3.10;99.90;;;2.78;76.42;97986.25;5009923;28;20273;-67
2023/01/18 03:40:18;;;;;;;2.90;2.47;;;3.00;99.90;;;2.79;76.71;97987.84;5001625;28;20202;-66
2023/01/18 03:43:11;;;;;;;2.53;2.22;;;3.10;99.90;;;2.80;75.83;97993.84;4994011;28;20213;-66
2023/01/18 03:45:42;;;;;;;2.70;2.45;;;3.00;99.90;;;2.79;76.48;97994.78;5009519;28;20222;-66
2023/01/18 03:48:10;;;;;;;3.38;2.72;;;3.10;99.90;;;2.79;76.63;97999.94;5009539;28;20632;-65
2023/01/18 03:50:48;;;;;;;3.47;2.35;;;3.00;99.90;;;2.79;76.67;98011.03;4996645;28;20226;-65
2023/01/18 03:53:41;;;;;;;2.58;2.38;;;3.00;99.90;;;2.79;76.61;98011.03;5014590;28;20220;-71
2023/01/18 03:56:51;;;;;;;3.80;2.78;;;3.10;99.90;;;2.79;76.27;98011.03;5031090;28;20629;-67
2023/01/18 03:59:18;;;;;;;2.33;2.20;;;3.00;99.90;;;2.80;76.25;98022.97;4990812;28;20198;-66
2023/01/18 04:01:46;;;;;;;2.88;2.67;;;3.10;99.90;;;2.83;76.25;98027.06;5011434;28;20666;-68
2023/01/18 04:04:15;;;;;;;2.35;2.25;;;3.10;99.90;;;2.84;76.13;98026.94;5004605;28;20190;-66
2023/01/18 04:06:41;;;;;;;2.92;2.72;;;3.10;99.90;;;2.86;75.60;98030.19;5032083;28;20271;-67
2023/01/18 04:09:10;;;;;;;2.65;2.45;;;3.10;99.90;;;2.90;75.77;98031.56;5027179;28;20222;-66
2023/01/18 04:11:37;;;;;;;2.00;2.00;;;3.20;99.90;;;2.92;75.84;98041.75;5012582;28;20621;-67
2023/01/18 04:14:05;;;;;;;2.45;2.35;;;3.20;99.90;;;2.86;75.29;98039.69;5020161;28;20289;-67
2023/01/18 04:16:32;;;;;;;3.35;3.05;;;3.10;99.90;;;2.89;76.02;98050.56;5016158;28;20227;-68
2023/01/18 04:18:59;;;;;;;2.40;2.20;;;3.10;99.90;;;2.89;75.96;98054.88;5011857;28;20191;-66
2023/01/18 04:21:25;;;;;;;2.70;2.30;;;3.10;99.90;;;2.89;75.72;98062.63;4996641;28;20737;-70
2023/01/18 04:23:52;;;;;;;2.75;2.55;;;3.10;99.90;;;2.90;75.49;98067.63;4994548;28;20256;-67
2023/01/18 04:26:19;;;;;;;3.70;1.88;;;3.20;99.90;;;2.88;76.32;98071.25;5012259;28;20257;-66
2023/01/18 04:28:46;;;;;;;2.15;2.05;;;3.10;99.90;;;2.88;75.78;98074.66;5011174;28;20198;-67
2023/01/18 04:31:13;;;;;;;2.25;2.15;;;3.10;99.90;;;2.88;76.43;98084.97;5011425;28;20702;-66
2023/01/18 04:33:40;;;;;;;2.60;2.40;;;3.10;99.90;;;2.91;76.51;98079.56;5011408;28;20206;-67
2023/01/18 04:36:07;;;;;;;2.50;2.30;;;3.10;99.90;;;2.92;76.46;98086.34;5011317;28;20219;-66
2023/01/18 04:38:34;;;;;;;2.60;2.45;;;3.10;99.90;;;2.91;76.34;98092.44;5010784;28;20226;-65
2023/01/18 04:41:03;;;;;;;1.60;1.50;;;3.10;99.90;;;2.93;76.65;98094.91;5011340;28;20198;-66
2023/01/18 04:43:30;;;;;;;2.47;1.95;;;3.10;99.90;;;2.92;76.44;98096.66;4991365;28;20216;-66
2023/01/18 04:45:57;;;;;;;2.00;1.90;;;3.20;99.90;;;2.97;77.00;98099.69;5018644;28;20296;-69
2023/01/18 04:48:25;;;;;;;3.13;2.20;;;3.20;99.90;;;2.95;76.93;98093.84;5018932;28;20203;-68
2023/01/18 04:50:52;;;;;;;1.35;1.25;;;3.20;99.90;;;2.95;77.35;98096.41;5022327;28;20226;-66
2023/01/18 04:53:19;;;;;;;2.67;2.47;;;3.20;99.90;;;2.93;77.97;98100.88;5029251;28;20205;-66
2023/01/18 04:55:46;;;;;;;2.58;2.38;;;3.20;99.90;;;2.86;78.66;98101.47;5011395;28;20285;-66
2023/01/18 04:58:14;;;;;;;2.00;1.88;;;3.10;99.90;;;2.83;80.03;98107.69;5010177;28;20710;-66
2023/01/18 05:00:40;;;;;;;2.80;2.60;;;3.10;99.90;;;2.81;80.78;98109.56;5010256;28;20207;-67
2023/01/18 05:03:10;;;;;;;4.45;2.38;;;3.10;99.90;;;2.82;80.39;98124.09;5004863;28;20631;-69
2023/01/18 05:05:37;;;;;;;4.68;2.20;;;3.10;99.90;;;2.77;80.21;98120.25;5025508;28;20214;-67
2023/01/18 05:08:04;;;;;;;2.22;1.48;;;3.00;99.90;;;2.75;80.79;98120.34;5009239;28;20195;-69
2023/01/18 05:10:32;;;;;;;2.58;2.10;;;3.00;99.90;;;2.77;80.94;98128.78;5011094;28;20218;-66
2023/01/18 05:12:59;;;;;;;2.25;2.08;;;3.00;99.90;;;2.79;81.21;98134.63;5010406;28;20452;-66
2023/01/18 05:15:26;;;;;;;2.25;2.15;;;3.00;99.90;;;2.78;81.15;98135.56;5019161;28;20723;-68
2023/01/18 05:17:53;;;;;;;2.08;1.90;;;3.00;99.90;;;2.77;80.52;98144.22;5017571;28;20275;-68
2023/01/18 05:20:20;;;;;;;2.17;2.08;;;3.00;99.90;;;2.78;80.20;98138.16;5021219;28;20407;-66
2023/01/18 05:22:47;;;;;;;3.47;2.35;;;3.00;99.90;;;2.80;79.71;98138.84;5010635;28;20210;-70
2023/01/18 05:25:14;;;;;;;1.92;1.83;;;3.00;99.90;;;2.83;79.66;98148.09;5010404;28;20230;-68
2023/01/18 05:27:40;;;;;;;2.15;2.05;;;3.00;99.90;;;2.81;79.12;98158.47;5010829;28;20203;-69
2023/01/18 05:30:09;;;;;;;2.10;2.00;;;3.10;99.90;;;2.82;79.55;98167.03;5010483;28;20227;-66
2023/01/18 05:32:37;;;;;;;4.15;2.78;;;3.00;99.90;;;2.84;78.62;98165.16;5015448;28;20198;-66
2023/01/18 05:35:04;;;;;;;1.98;1.77;;;3.10;99.90;;;2.85;78.36;98166.81;5012351;28;20214;-67
2023/01/18 05:37:31;;;;;;;4.47;2.25;;;3.10;99.90;;;2.84;78.48;98167.72;5009384;28;20191;-66
2023/01/18 05:39:58;;;;;;;1.45;1.35;;;3.10;99.90;;;2.83;78.53;98176.41;5007498;28;20215;-67
2023/01/18 05:42:25;;;;;;;2.63;2.42;;;3.00;99.90;;;2.79;78.65;98173.25;5009406;28;20206;-67
2023/01/18 05:44:52;;;;;;;2.63;1.85;;;3.00;99.90;;;2.79;78.41;98180.97;5010891;28;20241;-67
2023/01/18 05:47:19;;;;;;;2.03;1.92;;;3.00;99.90;;;2.79;78.64;98186.09;5008515;28;20230;-67
2023/01/18 05:49:46;;;;;;;2.40;2.30;;;3.00;99.90;;;2.80;78.43;98194.66;5011478;28;20219;-67
2023/01/18 05:52:13;;;;;;;2.08;1.98;;;3.00;99.90;;;2.76;78.72;98196.66;5014033;28;20203;-67
2023/01/18 05:54:40;;;;;;;2.30;2.20;;;3.00;99.90;;;2.78;78.77;98197.38;5014158;28;20638;-65
2023/01/18 05:57:07;;;;;;;1.70;1.70;;;3.00;99.90;;;2.81;78.85;98201.47;5014823;28;20603;-66
2023/01/18 05:59:34;;;;;;;1.98;1.88;;;3.00;99.90;;;2.82;78.68;98201.34;5008306;28;20728;-67
2023/01/18 06:02:02;;;;;;;2.05;1.95;;;3.10;99.90;;;2.78;79.12;98205.09;5014750;28;20199;-67
2023/01/18 06:04:29;;;;;;;3.88;2.88;;;3.00;99.90;;;2.77;79.09;98213.75;5019347;28;20210;-71
2023/01/18 06:06:56;;;;;;;2.33;2.10;;;3.00;99.90;;;2.78;79.20;98214.56;5033653;28;20229;-65
2023/01/18 06:09:23;;;;;;;2.38;2.13;;;3.00;99.90;;;2.74;79.50;98220.91;5024251;28;20202;-67
2023/01/18 06:11:50;;;;;;;2.58;2.42;;;3.00;99.90;;;2.71;79.09;98226.28;5013731;28;20207;-66
2023/01/18 06:14:17;;;;;;;2.28;2.17;;;2.90;99.90;;;2.73;79.51;98229.53;5013441;28;20199;-67
2023/01/18 06:16:44;;;;;;;2.80;2.30;;;3.00;99.90;;;2.77;78.73;98242.06;5014045;28;20610;-68
2023/01/18 06:19:11;;;;;;;2.10;1.77;;;3.00;99.90;;;2.77;79.13;98236.91;5016699;28;20229;-68
2023/01/18 06:21:38;;;;;;;3.00;2.28;;;3.00;99.90;;;2.76;78.62;98245.59;5018814;28;20203;-68
2023/01/18 06:24:05;;;;;;;2.35;2.03;;;3.00;99.90;;;2.77;79.13;98249.00;5017274;28;20213;-65
2023/01/18 06:26:32;;;;;;;1.92;1.83;;;3.00;99.90;;;2.74;79.00;98251.78;5000110;28;20232;-67
2023/01/18 06:28:59;;;;;;;1.70;1.70;;;3.00;99.90;;;2.77;78.80;98260.09;5017880;28;20221;-66
2023/01/18 06:31:26;;;;;;;1.90;1.80;;;3.00;99.90;;;2.79;79.07;98260.78;5012855;28;20218;-70
2023/01/18 06:33:53;;;;;;;1.65;1.55;;;3.00;99.90;;;2.78;79.03;98259.16;4996316;28;20581;-66
2023/01/18 06:36:19;;;;;;;1.95;1.70;;;3.00;99.90;;;2.76;78.78;98268.75;5013687;28;20578;-65
2023/01/18 06:38:46;;;;;;;1.67;1.58;;;3.00;99.90;;;2.72;79.10;98269.94;5020187;28;20293;-69
2023/01/18 06:41:14;;;;;;;2.08;1.88;;;3.00;99.90;;;2.71;78.69;98277.75;5012752;28;20264;-66
2023/01/18 06:43:41;;;;;;;2.40;2.20;;;2.90;99.90;;;2.69;79.07;98277.88;5009079;28;20206;-65
2023/01/18 06:46:10;;;;;;;4.35;1.75;;;2.90;99.90;;;2.65;79.13;98280.81;5013683;28;20613;-70
2023/01/18 06:48:37;;;;;;;1.92;1.83;;;2.90;99.90;;;2.61;79.81;98287.97;5011760;28;20202;-65
2023/01/18 06:51:04;;;;;;;2.45;2.25;;;2.90;99.90;;;2.61;79.73;98287.97;5012264;28;20594;-65
2023/01/18 06:53:31;;;;;;;2.05;1.92;;;2.80;99.90;;;2.59;79.67;98292.41;5018287;28;20245;-65
2023/01/18 06:56:00;;;;;;;3.65;2.15;;;2.90;99.90;;;2.55;79.59;98298.72;5012515;28;20230;-65
2023/01/18 06:58:29;;;;;;;3.40;1.90;;;2.80;99.90;;;2.55;80.11;98305.63;5012421;28;20203;-65
2023/01/18 07:00:59;;;;;;;5.30;2.50;;;2.80;99.90;;;2.57;79.66;98316.63;4993181;28;20207;-71
2023/01/18 07:03:29;;;;;;;1.10;1.10;;;2.80;99.90;;;2.56;80.16;98315.78;5012035;28;20583;-65
2023/01/18 07:05:59;;;;;;;1.42;1.33;;;2.80;99.90;;;2.56;79.99;98325.25;4996025;28;20218;-67
2023/01/18 07:08:29;;;;;;;2.17;1.33;;;2.80;99.90;;;2.58;79.95;98324.22;5012110;28;20199;-65
2023/01/18 07:10:58;;;;;;;0.47;0.47;;;2.80;99.90;;;2.59;80.06;98325.88;5012662;28;20223;-66
2023/01/18 07:13:25;;;;;;;1.00;1.00;;;2.90;99.90;;;2.64;80.25;98328.09;5005536;28;20198;-68
2023/01/18 07:15:55;;;;;;;0.50;0.50;;;2.90;99.90;;;2.67;80.87;98338.16;4995770;28;20242;-65
2023/01/18 07:18:25;;;;;;;0.93;0.93;;;3.00;99.90;;;2.66;80.98;98352.75;4992692;28;20283;-67
2023/01/18 07:21:00;;;;;;;1.15;1.15;;;2.90;99.90;;;2.64;80.62;98354.63;5009117;28;20225;-65
2023/01/18 07:23:28;;;;;;;1.30;1.20;;;2.90;99.90;;;2.66;81.20;98352.75;5012864;28;20194;-67
2023/01/18 07:26:03;;;;;;;1.15;0.73;;;2.90;99.90;;;2.67;81.37;98366.47;5011330;28;20219;-63
2023/01/18 07:28:31;;;;;;;1.58;1.48;;;2.90;99.90;;;2.63;81.26;98359.91;5011617;28;20206;-68
2023/01/18 07:30:59;;;;;;;1.80;1.70;;;2.90;99.90;;;2.60;80.93;98366.09;5024584;28;20226;-66
2023/01/18 07:33:27;;;;;;;2.28;1.23;;;2.90;99.90;;;2.59;80.91;98367.06;5010215;28;20226;-66
2023/01/18 07:35:56;;;;;;;2.20;1.35;;;2.90;99.90;;;2.64;80.34;98374.44;5010648;28;20223;-68
2023/01/18 07:38:24;;;;;;;1.20;1.10;;;2.90;99.90;;;2.66;80.11;98380.28;5011852;28;20289;-65
2023/01/18 07:41:08;;;;;;;2.17;1.50;;;2.90;99.90;;;2.66;80.24;98380.28;5011636;28;20202;-67
2023/01/18 07:43:36;;;;;;;1.40;1.27;;;2.90;99.90;;;2.67;80.86;98377.59;5012358;28;20210;-66
2023/01/18 07:46:05;;;;;;;0.80;0.80;;;2.90;99.90;;;2.70;80.23;98385.09;5014034;28;20255;-66
2023/01/18 07:48:33;;;;;;;1.17;1.17;;;3.00;99.90;;;2.74;79.94;98398.53;4999715;28;20198;-66
2023/01/18 07:51:06;;;;;;;1.30;1.20;;;3.00;99.90;;;2.73;79.83;98395.16;5011107;28;20310;-68
2023/01/18 07:53:34;;;;;;;1.20;1.20;;;3.00;99.90;;;2.80;79.25;98400.66;5012168;28;20218;-66
2023/01/18 07:56:05;;;;;;;2.08;1.52;;;3.10;99.90;;;2.86;78.87;98403.59;5011555;28;20226;-66
2023/01/18 07:58:34;;;;;;;1.63;1.45;;;3.10;99.90;;;2.90;77.82;98407.56;5004048;28;20201;-66
2023/01/18 08:01:08;;;;;;;1.00;1.00;;;3.20;99.90;;;2.90;77.17;98422.19;5009345;28;20203;-68
2023/01/18 08:03:36;;;;;;;6.30;1.75;;;3.20;99.90;;;2.94;76.09;98424.44;5004004;28;20197;-66
2023/01/18 08:06:07;;;;;;;2.92;0.98;;;3.20;99.90;;;2.91;75.69;98414.38;5009013;28;20249;-66
2023/01/18 08:08:35;;;;;;;1.35;1.25;;;3.20;99.90;;;2.92;75.94;98423.72;5021094;28;20571;-68
2023/01/18 08:11:05;;;;;;;1.58;1.48;;;3.20;99.90;;;2.92;75.42;98431.44;5027458;28;20217;-68
2023/01/18 08:13:32;;;;;;;1.65;1.20;;;3.20;99.90;;;2.94;75.74;98439.06;5028317;28;20694;-68
2023/01/18 08:16:01;;;;;;;1.52;1.42;;;3.20;99.90;;;2.96;75.27;98440.59;5012257;28;20234;-66
2023/01/18 08:18:28;;;;;;;1.58;1.48;;;3.20;99.90;;;3.00;75.46;98444.56;5010061;28;20301;-69
2023/01/18 08:20:56;;;;;;;3.50;1.88;;;3.30;99.90;;;3.00;74.58;98451.50;4994567;28;20309;-67
2023/01/18 08:23:23;;;;;;;1.77;1.58;;;3.30;99.90;;;3.00;74.85;98447.13;5011604;28;20213;-67
2023/01/18 08:25:50;;;;;;;1.77;1.67;;;3.30;99.90;;;3.02;74.93;98458.16;5008839;28;20703;-67
2023/01/18 08:28:18;;;;;;;1.70;1.58;;;3.30;99.90;;;3.04;75.50;98451.16;5016648;28;20229;-69
2023/01/18 08:30:47;;;;;;;2.92;1.50;;;3.30;99.90;;;3.07;74.75;98461.22;5011081;28;20230;-67
2023/01/18 08:33:14;;;;;;;1.60;1.50;;;3.30;99.90;;;3.07;74.70;98463.78;5011806;28;20210;-67
2023/01/18 08:35:46;;;;;;;1.60;1.50;;;3.30;99.90;;;3.09;74.33;98469.63;5011078;28;20218;-67
2023/01/18 08:38:15;;;;;;;1.70;1.60;;;3.30;99.90;;;3.11;74.15;98475.50;5011298;28;20634;-71
2023/01/18 08:40:42;;;;;;;1.88;1.70;;;3.40;99.90;;;3.14;74.15;98485.56;5009156;28;20214;-66
2023/01/18 08:43:10;;;;;;;1.00;1.00;;;3.40;99.90;;;3.15;73.20;98488.97;4993475;28;20210;-70
2023/01/18 08:45:37;;;;;;;1.60;1.50;;;3.40;99.90;;;3.12;73.78;98497.75;5018409;28;20232;-67
2023/01/18 08:48:08;;;;;;;1.80;1.70;;;3.40;99.90;;;3.13;73.38;98501.97;5011856;28;20256;-67
2023/01/18 08:50:38;;;;;;;1.08;1.00;;;3.40;99.90;;;3.14;73.61;98493.31;5009479;28;20699;-69
2023/01/18 08:53:05;;;;;;;1.67;1.58;;;3.40;99.90;;;3.14;73.18;98495.06;5011713;28;20206;-67
2023/01/18 08:55:35;;;;;;;1.92;1.83;;;3.40;99.90;;;3.15;72.77;98507.03;5009663;28;20218;-66
2023/01/18 08:58:02;;;;;;;2.10;2.00;;;3.40;99.90;;;3.15;72.79;98517.31;5011316;28;20199;-67
2023/01/18 09:00:29;;;;;;;5.32;1.50;;;3.40;99.90;;;3.17;72.58;98509.47;5009872;28;20359;-68
2023/01/18 09:02:57;;;;;;;0.95;0.95;;;3.40;99.90;;;3.25;72.07;98517.44;4992616;28;20244;-66
2023/01/18 09:05:25;;;;;;;1.38;1.38;;;3.50;99.90;;;3.39;71.50;98525.75;5010017;28;20249;-68
2023/01/18 09:07:54;;;;;;;2.30;2.10;;;3.60;99.90;;;3.50;70.94;98528.34;5008192;28;20709;-67
2023/01/18 09:10:22;;;;;;;2.58;2.30;;;3.80;99.90;;;3.59;70.52;98537.97;5009897;28;20276;-69
2023/01/18 09:12:49;;;;;;;2.50;2.15;;;3.90;99.90;;;3.70;70.42;98542.31;5010183;28;20655;-67
2023/01/18 09:15:19;;;;;;;2.72;1.60;;;3.90;99.90;;;3.85;69.94;98546.28;5009271;28;20228;-66
2023/01/18 09:17:46;;;;;;;1.70;1.60;;;4.10;99.90;;;4.10;68.71;98550.34;5022316;28;20203;-68
2023/01/18 09:20:14;;;;;;;2.42;2.10;;;4.30;99.90;;;4.25;67.67;98556.88;5009485;28;20198;-66
2023/01/18 09:22:46;;;;;;;1.92;1.73;;;4.50;99.90;;;4.35;67.08;98550.88;5009923;28;20214;-67
2023/01/18 09:25:14;;;;;;;2.13;2.03;;;4.60;99.90;;;4.35;67.31;98552.63;5007282;28;20238;-65
2023/01/18 09:27:41;;;;;;;1.67;1.55;;;4.70;99.90;;;4.41;66.98;98560.72;5009814;28;20226;-65
2023/01/18 09:30:09;;;;;;;3.17;1.35;;;4.70;99.90;;;4.61;67.11;98570.28;5009775;28;20202;-66
2023/01/18 09:32:36;;;;;;;2.72;1.95;;;4.90;99.90;;;4.75;65.86;98576.09;5009085;28;20229;-69
2023/01/18 09:35:03;;;;;;;1.23;1.08;;;5.00;99.90;;;4.86;65.22;98584.63;5010385;28;20237;-65
2023/01/18 09:37:31;;;;;;;2.70;1.70;;;5.10;99.90;;;4.88;64.50;98590.47;5007765;28;20203;-69
2023/01/18 09:39:59;;;;;;;1.50;1.40;;;5.10;99.90;;;4.99;64.22;98597.38;4996803;28;20200;-70
2023/01/18 09:42:36;;;;;;;2.15;1.83;;;5.30;99.90;;;5.01;64.33;98601.47;5006986;28;20421;-65
2023/01/18 09:45:04;;;;;;;2.20;2.00;;;5.30;99.90;;;5.16;63.82;98604.56;5004520;28;20610;-69
2023/01/18 09:47:42;;;;;;;2.10;2.03;;;5.50;99.90;;;5.18;63.06;98613.00;5010500;28;20556;-66
2023/01/18 09:50:15;;;;;;;1.10;1.10;;;5.50;99.90;;;5.22;63.25;98620.41;5022564;28;20206;-68
2023/01/18 09:53:34;;;;;;;5.75;2.22;;;5.50;99.90;;;5.10;63.03;98620.56;5016712;28;20315;-67
2023/01/18 09:56:26;;;;;;;2.10;2.00;;;5.50;99.90;;;5.13;62.61;98615.16;5013224;28;20226;-67
2023/01/18 09:59:26;;;;;;;2.72;2.50;;;5.50;99.90;;;5.16;62.99;98627.81;4993480;28;20575;-71
2023/01/18 10:01:54;;;;;;;4.30;2.03;;;5.50;99.90;;;5.28;62.45;98630.22;4990768;28;20210;-66
2023/01/18 10:04:35;;;;;;;2.70;2.53;;;5.50;99.90;;;5.28;61.88;98627.66;4999725;28;20227;-65
2023/01/18 10:07:06;;;;;;;1.90;1.80;;;5.60;99.90;;;5.33;63.40;98637.63;5001716;28;20214;-66
2023/01/18 10:09:42;;;;;;;2.20;2.00;;;5.60;99.90;;;5.48;62.72;98638.94;5007921;28;20671;-67
2023/01/18 10:12:37;;;;;;;2.40;1.50;;;5.70;99.90;;;5.43;62.25;98638.53;5010403;28;20667;-69
2023/01/18 10:15:21;;;;;;;4.65;2.30;;;5.70;99.90;;;5.34;62.39;98636.69;5009334;28;20367;-68
2023/01/18 10:17:52;;;;;;;2.45;2.25;;;5.60;99.90;;;5.18;62.02;98644.84;5009301;28;20207;-67
2023/01/18 10:20:43;;;;;;;1.65;1.55;;;5.50;99.90;;;5.13;62.06;98648.78;5009817;28;20195;-68
2023/01/18 10:23:34;;;;;;;2.50;2.30;;;5.40;99.90;;;4.99;63.06;98655.03;5009368;28;20218;-66
2023/01/18 10:26:08;;;;;;;1.95;1.85;;;5.30;99.90;;;5.07;63.05;98662.19;5010023;28;20222;-67
2023/01/18 10:28:59;;;;;;;2.00;1.90;;;5.30;99.90;;;5.25;62.47;98651.19;4992184;28;20210;-66
2023/01/18 10:31:56;;;;;;;1.95;1.85;;;5.50;99.90;;;5.33;62.68;98659.13;5009787;28;20222;-66
2023/01/18 10:34:33;;;;;;;3.38;2.72;;;5.60;99.90;;;5.31;62.25;98665.38;5002179;28;20210;-65
2023/01/18 10:37:20;;;;;;;2.45;2.10;;;5.60;99.90;;;5.26;62.71;98660.56;5010426;28;20348;-65
2023/01/18 10:40:11;;;;;;;2.95;1.83;;;5.50;99.90;;;5.32;63.67;98657.47;5026052;28;20206;-66
2023/01/18 10:42:51;;;;;;;2.28;2.15;;;5.50;99.90;;;5.37;61.79;98668.28;5013263;28;20198;-65
2023/01/18 10:45:23;;;;;;;2.70;2.50;;;5.60;99.90;;;5.27;61.70;98653.63;4996324;28;20225;-66
2023/01/18 10:47:52;;;;;;;1.67;1.60;;;5.60;99.90;;;5.32;61.57;98659.25;5030385;28;20210;-69
2023/01/18 10:50:38;;;;;;;3.08;1.60;;;5.60;99.90;;;5.31;60.92;98671.38;5020167;28;20214;-66
2023/01/18 10:53:33;;;;;;;1.65;1.55;;;5.60;99.90;;;5.24;60.03;98685.72;5009416;28;20517;-65
2023/01/18 10:56:15;;;;;;;1.33;1.23;;;5.50;99.90;;;5.23;59.84;98684.09;5011502;28;20230;-69
2023/01/18 10:58:56;;;;;;;1.45;1.45;;;5.50;99.90;;;5.27;59.86;98685.47;5021949;28;20238;-69
2023/01/18 11:01:35;;;;;;;1.67;1.58;;;5.50;99.90;;;5.24;60.16;98693.47;5011081;28;20195;-64
2023/01/18 11:04:06;;;;;;;5.80;2.28;;;5.50;99.90;;;5.26;59.27;98693.38;4999044;28;20207;-70
2023/01/18 11:06:49;;;;;;;1.55;1.45;;;5.50;99.90;;;5.23;58.77;98685.84;5002697;28;20221;-66
2023/01/18 11:09:40;;;;;;;2.50;2.30;;;5.50;99.90;;;5.23;58.66;98691.03;5001282;28;20282;-69
2023/01/18 11:12:37;;;;;;;3.45;1.85;;;5.50;99.90;;;5.18;58.01;98693.16;5008059;28;20672;-64
2023/01/18 11:15:13;;;;;;;1.92;1.83;;;5.50;99.90;;;5.18;57.96;98686.22;5016763;28;20317;-65
2023/01/18 11:17:59;;;;;;;1.95;1.52;;;5.40;99.90;;;5.13;58.00;98690.94;5022621;28;20581;-66
2023/01/18 11:20:48;;;;;;;2.10;2.00;;;5.40;99.90;;;5.02;58.09;98687.56;5009097;28;20226;-65
2023/01/18 11:23:36;;;;;;;1.92;1.83;;;5.30;99.90;;;4.96;58.24;98691.44;5014531;28;20202;-68